sensor_id;sensor_type;location;lat;lon;timestamp;P1;durP1;ratioP1;P2;durP2;ratioP2
72728;SDS011;60843;52.062;4.508;2023-06-10T00:00:49;6.30;;;5.17;;
72728;SDS011;60843;52.062;4.508;2023-06-10T00:03:16;9.77;;;5.68;;
72728;SDS011;60843;52.062;4.508;2023-06-10T00:05:41;7.97;;;4.90;;
72728;SDS011;60843;52.062;4.508;2023-06-10T00:08:06;9.95;;;5.35;;
72728;SDS011;60843;52.062;4.508;2023-06-10T00:10:36;9.18;;;4.70;;
72728;SDS011;60843;52.062;4.508;2023-06-10T00:13:03;7.05;;;4.50;;
72728;SDS011;60843;52.062;4.508;2023-06-10T00:15:29;7.38;;;4.93;;
72728;SDS011;60843;52.062;4.508;2023-06-10T00:17:55;7.95;;;5.03;;
72728;SDS011;60843;52.062;4.508;2023-06-10T00:20:20;8.43;;;4.80;;
72728;SDS011;60843;52.062;4.508;2023-06-10T00:25:14;9.27;;;4.60;;
72728;SDS011;60843;52.062;4.508;2023-06-10T00:27:39;8.70;;;4.40;;
72728;SDS011;60843;52.062;4.508;2023-06-10T00:30:05;8.63;;;4.45;;
72728;SDS011;60843;52.062;4.508;2023-06-10T00:32:32;5.18;;;4.15;;
72728;SDS011;60843;52.062;4.508;2023-06-10T00:35:01;7.88;;;4.78;;
72728;SDS011;60843;52.062;4.508;2023-06-10T00:37:27;6.68;;;4.43;;
72728;SDS011;60843;52.062;4.508;2023-06-10T00:39:53;8.57;;;4.35;;
72728;SDS011;60843;52.062;4.508;2023-06-10T00:42:19;10.35;;;4.95;;
72728;SDS011;60843;52.062;4.508;2023-06-10T00:44:44;9.88;;;4.60;;
72728;SDS011;60843;52.062;4.508;2023-06-10T00:47:10;11.20;;;4.83;;
72728;SDS011;60843;52.062;4.508;2023-06-10T00:49:35;8.57;;;4.65;;
72728;SDS011;60843;52.062;4.508;2023-06-10T00:52:01;11.73;;;4.57;;
72728;SDS011;60843;52.062;4.508;2023-06-10T00:54:28;6.50;;;4.60;;
72728;SDS011;60843;52.062;4.508;2023-06-10T00:56:54;15.93;;;4.88;;
72728;SDS011;60843;52.062;4.508;2023-06-10T00:59:20;8.68;;;4.43;;
72728;SDS011;60843;52.062;4.508;2023-06-10T01:01:45;8.82;;;4.18;;
72728;SDS011;60843;52.062;4.508;2023-06-10T01:04:12;7.18;;;4.38;;
72728;SDS011;60843;52.062;4.508;2023-06-10T01:06:59;8.95;;;4.07;;
72728;SDS011;60843;52.062;4.508;2023-06-10T01:12:16;7.47;;;4.20;;
72728;SDS011;60843;52.062;4.508;2023-06-10T01:14:44;8.65;;;3.58;;
72728;SDS011;60843;52.062;4.508;2023-06-10T01:17:11;7.82;;;3.85;;
72728;SDS011;60843;52.062;4.508;2023-06-10T01:19:36;7.05;;;3.28;;
72728;SDS011;60843;52.062;4.508;2023-06-10T01:22:05;7.10;;;3.95;;
72728;SDS011;60843;52.062;4.508;2023-06-10T01:24:32;7.43;;;3.50;;
72728;SDS011;60843;52.062;4.508;2023-06-10T01:27:00;7.47;;;4.07;;
72728;SDS011;60843;52.062;4.508;2023-06-10T01:29:41;6.35;;;4.10;;
72728;SDS011;60843;52.062;4.508;2023-06-10T01:32:21;6.15;;;3.55;;
72728;SDS011;60843;52.062;4.508;2023-06-10T01:34:49;7.50;;;4.13;;
72728;SDS011;60843;52.062;4.508;2023-06-10T01:37:16;6.75;;;3.63;;
72728;SDS011;60843;52.062;4.508;2023-06-10T01:39:43;5.90;;;3.47;;
72728;SDS011;60843;52.062;4.508;2023-06-10T01:42:10;6.97;;;3.90;;
72728;SDS011;60843;52.062;4.508;2023-06-10T01:44:37;7.50;;;3.67;;
72728;SDS011;60843;52.062;4.508;2023-06-10T01:47:04;9.27;;;3.78;;
72728;SDS011;60843;52.062;4.508;2023-06-10T01:49:29;7.68;;;3.67;;
72728;SDS011;60843;52.062;4.508;2023-06-10T01:51:55;9.80;;;3.85;;
72728;SDS011;60843;52.062;4.508;2023-06-10T01:54:20;7.88;;;4.32;;
72728;SDS011;60843;52.062;4.508;2023-06-10T01:56:46;7.57;;;3.97;;
72728;SDS011;60843;52.062;4.508;2023-06-10T01:59:11;6.83;;;3.20;;
72728;SDS011;60843;52.062;4.508;2023-06-10T02:01:37;7.00;;;3.70;;
72728;SDS011;60843;52.062;4.508;2023-06-10T02:04:02;10.00;;;4.27;;
72728;SDS011;60843;52.062;4.508;2023-06-10T02:09:03;6.72;;;3.25;;
72728;SDS011;60843;52.062;4.508;2023-06-10T02:11:28;6.95;;;3.47;;
72728;SDS011;60843;52.062;4.508;2023-06-10T02:13:54;4.93;;;3.58;;
72728;SDS011;60843;52.062;4.508;2023-06-10T02:16:20;5.18;;;3.45;;
72728;SDS011;60843;52.062;4.508;2023-06-10T02:18:46;8.10;;;3.95;;
72728;SDS011;60843;52.062;4.508;2023-06-10T02:21:12;8.68;;;3.80;;
72728;SDS011;60843;52.062;4.508;2023-06-10T02:23:37;8.95;;;3.25;;
72728;SDS011;60843;52.062;4.508;2023-06-10T02:26:03;5.28;;;3.25;;
72728;SDS011;60843;52.062;4.508;2023-06-10T02:28:28;8.13;;;3.60;;
72728;SDS011;60843;52.062;4.508;2023-06-10T02:30:54;9.90;;;4.00;;
72728;SDS011;60843;52.062;4.508;2023-06-10T02:33:19;5.33;;;3.27;;
72728;SDS011;60843;52.062;4.508;2023-06-10T02:35:45;9.35;;;3.72;;
72728;SDS011;60843;52.062;4.508;2023-06-10T02:38:10;6.60;;;3.60;;
72728;SDS011;60843;52.062;4.508;2023-06-10T02:40:36;7.25;;;3.30;;
72728;SDS011;60843;52.062;4.508;2023-06-10T02:43:04;6.70;;;3.35;;
72728;SDS011;60843;52.062;4.508;2023-06-10T02:45:29;8.30;;;3.70;;
72728;SDS011;60843;52.062;4.508;2023-06-10T02:47:55;7.63;;;3.47;;
72728;SDS011;60843;52.062;4.508;2023-06-10T02:50:20;10.43;;;3.58;;
72728;SDS011;60843;52.062;4.508;2023-06-10T02:52:46;10.75;;;3.58;;
72728;SDS011;60843;52.062;4.508;2023-06-10T02:55:13;9.77;;;3.75;;
72728;SDS011;60843;52.062;4.508;2023-06-10T02:57:39;5.40;;;3.35;;
72728;SDS011;60843;52.062;4.508;2023-06-10T03:00:05;9.82;;;3.50;;
72728;SDS011;60843;52.062;4.508;2023-06-10T03:02:36;7.25;;;3.90;;
72728;SDS011;60843;52.062;4.508;2023-06-10T03:05:04;9.95;;;3.53;;
72728;SDS011;60843;52.062;4.508;2023-06-10T03:07:30;6.07;;;3.45;;
72728;SDS011;60843;52.062;4.508;2023-06-10T03:09:57;8.82;;;3.35;;
72728;SDS011;60843;52.062;4.508;2023-06-10T03:12:22;7.43;;;3.83;;
72728;SDS011;60843;52.062;4.508;2023-06-10T03:14:48;8.52;;;3.80;;
72728;SDS011;60843;52.062;4.508;2023-06-10T03:17:13;6.60;;;3.60;;
72728;SDS011;60843;52.062;4.508;2023-06-10T03:19:39;7.57;;;3.60;;
72728;SDS011;60843;52.062;4.508;2023-06-10T03:22:08;6.73;;;3.80;;
72728;SDS011;60843;52.062;4.508;2023-06-10T03:24:38;8.60;;;3.45;;
72728;SDS011;60843;52.062;4.508;2023-06-10T03:27:08;6.57;;;3.35;;
72728;SDS011;60843;52.062;4.508;2023-06-10T03:29:34;7.43;;;3.33;;
72728;SDS011;60843;52.062;4.508;2023-06-10T03:32:00;6.13;;;3.22;;
72728;SDS011;60843;52.062;4.508;2023-06-10T03:34:26;8.70;;;3.28;;
72728;SDS011;60843;52.062;4.508;2023-06-10T03:36:52;5.05;;;3.15;;
72728;SDS011;60843;52.062;4.508;2023-06-10T03:39:17;13.68;;;3.90;;
72728;SDS011;60843;52.062;4.508;2023-06-10T03:41:42;8.63;;;3.85;;
72728;SDS011;60843;52.062;4.508;2023-06-10T03:44:08;8.52;;;3.30;;
72728;SDS011;60843;52.062;4.508;2023-06-10T03:46:33;6.30;;;3.35;;
72728;SDS011;60843;52.062;4.508;2023-06-10T03:48:59;6.45;;;3.60;;
72728;SDS011;60843;52.062;4.508;2023-06-10T03:51:26;7.85;;;3.95;;
72728;SDS011;60843;52.062;4.508;2023-06-10T03:53:52;15.25;;;3.80;;
72728;SDS011;60843;52.062;4.508;2023-06-10T03:56:17;7.28;;;3.22;;
72728;SDS011;60843;52.062;4.508;2023-06-10T03:58:43;7.38;;;3.88;;
72728;SDS011;60843;52.062;4.508;2023-06-10T04:01:08;6.30;;;3.10;;
72728;SDS011;60843;52.062;4.508;2023-06-10T04:03:34;4.30;;;2.92;;
72728;SDS011;60843;52.062;4.508;2023-06-10T04:05:59;6.63;;;3.55;;
72728;SDS011;60843;52.062;4.508;2023-06-10T04:08:25;7.10;;;3.30;;
72728;SDS011;60843;52.062;4.508;2023-06-10T04:10:50;5.25;;;3.53;;
72728;SDS011;60843;52.062;4.508;2023-06-10T04:13:16;8.82;;;3.70;;
72728;SDS011;60843;52.062;4.508;2023-06-10T04:15:43;6.25;;;3.35;;
72728;SDS011;60843;52.062;4.508;2023-06-10T04:18:08;5.80;;;3.57;;
72728;SDS011;60843;52.062;4.508;2023-06-10T04:20:33;6.05;;;3.53;;
72728;SDS011;60843;52.062;4.508;2023-06-10T04:22:59;9.80;;;3.55;;
72728;SDS011;60843;52.062;4.508;2023-06-10T04:25:24;5.75;;;3.40;;
72728;SDS011;60843;52.062;4.508;2023-06-10T04:27:51;6.53;;;3.42;;
72728;SDS011;60843;52.062;4.508;2023-06-10T04:30:16;8.68;;;3.40;;
72728;SDS011;60843;52.062;4.508;2023-06-10T04:32:42;5.72;;;3.53;;
72728;SDS011;60843;52.062;4.508;2023-06-10T04:35:10;6.28;;;4.10;;
72728;SDS011;60843;52.062;4.508;2023-06-10T04:37:36;5.95;;;3.28;;
72728;SDS011;60843;52.062;4.508;2023-06-10T04:40:02;7.47;;;3.60;;
72728;SDS011;60843;52.062;4.508;2023-06-10T04:42:28;7.35;;;3.60;;
72728;SDS011;60843;52.062;4.508;2023-06-10T04:44:53;6.05;;;3.67;;
72728;SDS011;60843;52.062;4.508;2023-06-10T04:47:19;6.40;;;3.45;;
72728;SDS011;60843;52.062;4.508;2023-06-10T04:49:45;9.65;;;3.88;;
72728;SDS011;60843;52.062;4.508;2023-06-10T04:52:10;10.10;;;3.38;;
72728;SDS011;60843;52.062;4.508;2023-06-10T04:54:36;9.27;;;3.97;;
72728;SDS011;60843;52.062;4.508;2023-06-10T04:57:01;6.97;;;3.57;;
72728;SDS011;60843;52.062;4.508;2023-06-10T04:59:27;7.10;;;3.80;;
72728;SDS011;60843;52.062;4.508;2023-06-10T05:01:52;11.23;;;3.35;;
72728;SDS011;60843;52.062;4.508;2023-06-10T05:04:17;7.40;;;3.40;;
72728;SDS011;60843;52.062;4.508;2023-06-10T05:06:43;7.07;;;3.97;;
72728;SDS011;60843;52.062;4.508;2023-06-10T05:09:09;7.10;;;3.70;;
72728;SDS011;60843;52.062;4.508;2023-06-10T05:11:34;10.50;;;3.80;;
72728;SDS011;60843;52.062;4.508;2023-06-10T05:14:00;7.43;;;3.30;;
72728;SDS011;60843;52.062;4.508;2023-06-10T05:16:25;9.55;;;3.90;;
72728;SDS011;60843;52.062;4.508;2023-06-10T05:18:51;7.45;;;3.85;;
72728;SDS011;60843;52.062;4.508;2023-06-10T05:21:17;6.03;;;3.42;;
72728;SDS011;60843;52.062;4.508;2023-06-10T05:23:42;7.40;;;3.58;;
72728;SDS011;60843;52.062;4.508;2023-06-10T05:26:08;7.82;;;3.80;;
72728;SDS011;60843;52.062;4.508;2023-06-10T05:28:33;5.63;;;3.53;;
72728;SDS011;60843;52.062;4.508;2023-06-10T05:30:59;6.00;;;3.43;;
72728;SDS011;60843;52.062;4.508;2023-06-10T05:33:24;7.20;;;3.63;;
72728;SDS011;60843;52.062;4.508;2023-06-10T05:35:49;7.27;;;3.93;;
72728;SDS011;60843;52.062;4.508;2023-06-10T05:38:15;8.80;;;3.60;;
72728;SDS011;60843;52.062;4.508;2023-06-10T05:40:40;7.45;;;3.70;;
72728;SDS011;60843;52.062;4.508;2023-06-10T05:43:06;6.75;;;3.65;;
72728;SDS011;60843;52.062;4.508;2023-06-10T05:45:32;6.65;;;3.75;;
72728;SDS011;60843;52.062;4.508;2023-06-10T05:47:57;7.23;;;3.60;;
72728;SDS011;60843;52.062;4.508;2023-06-10T05:50:23;7.10;;;3.60;;
72728;SDS011;60843;52.062;4.508;2023-06-10T05:52:49;9.55;;;3.95;;
72728;SDS011;60843;52.062;4.508;2023-06-10T05:55:15;11.43;;;3.85;;
72728;SDS011;60843;52.062;4.508;2023-06-10T05:57:41;8.10;;;3.80;;
72728;SDS011;60843;52.062;4.508;2023-06-10T06:00:07;6.60;;;3.67;;
72728;SDS011;60843;52.062;4.508;2023-06-10T06:02:33;9.45;;;4.35;;
72728;SDS011;60843;52.062;4.508;2023-06-10T06:04:58;7.57;;;3.80;;
72728;SDS011;60843;52.062;4.508;2023-06-10T06:07:24;6.97;;;3.70;;
72728;SDS011;60843;52.062;4.508;2023-06-10T06:09:49;7.57;;;3.35;;
72728;SDS011;60843;52.062;4.508;2023-06-10T06:12:15;8.45;;;3.70;;
72728;SDS011;60843;52.062;4.508;2023-06-10T06:14:40;7.05;;;3.70;;
72728;SDS011;60843;52.062;4.508;2023-06-10T06:17:06;10.43;;;4.05;;
72728;SDS011;60843;52.062;4.508;2023-06-10T06:19:32;7.05;;;4.00;;
72728;SDS011;60843;52.062;4.508;2023-06-10T06:21:57;7.78;;;4.25;;
72728;SDS011;60843;52.062;4.508;2023-06-10T06:24:23;6.97;;;3.33;;
72728;SDS011;60843;52.062;4.508;2023-06-10T06:26:48;5.27;;;3.83;;
72728;SDS011;60843;52.062;4.508;2023-06-10T06:29:13;9.20;;;4.00;;
72728;SDS011;60843;52.062;4.508;2023-06-10T06:31:39;4.78;;;3.78;;
72728;SDS011;60843;52.062;4.508;2023-06-10T06:34:04;6.93;;;4.23;;
72728;SDS011;60843;52.062;4.508;2023-06-10T06:36:30;9.70;;;4.07;;
72728;SDS011;60843;52.062;4.508;2023-06-10T06:38:55;9.60;;;3.92;;
72728;SDS011;60843;52.062;4.508;2023-06-10T06:41:21;7.22;;;4.13;;
72728;SDS011;60843;52.062;4.508;2023-06-10T06:43:47;7.75;;;3.95;;
72728;SDS011;60843;52.062;4.508;2023-06-10T06:46:12;10.13;;;4.25;;
72728;SDS011;60843;52.062;4.508;2023-06-10T06:48:37;7.40;;;3.95;;
72728;SDS011;60843;52.062;4.508;2023-06-10T06:51:03;7.40;;;4.07;;
72728;SDS011;60843;52.062;4.508;2023-06-10T06:53:28;9.13;;;3.65;;
72728;SDS011;60843;52.062;4.508;2023-06-10T06:55:54;9.30;;;4.00;;
72728;SDS011;60843;52.062;4.508;2023-06-10T06:58:19;7.47;;;4.20;;
72728;SDS011;60843;52.062;4.508;2023-06-10T07:00:45;8.40;;;4.15;;
72728;SDS011;60843;52.062;4.508;2023-06-10T07:03:13;6.85;;;4.43;;
72728;SDS011;60843;52.062;4.508;2023-06-10T07:05:38;6.85;;;3.85;;
72728;SDS011;60843;52.062;4.508;2023-06-10T07:08:04;5.55;;;3.75;;
72728;SDS011;60843;52.062;4.508;2023-06-10T07:10:30;7.45;;;3.92;;
72728;SDS011;60843;52.062;4.508;2023-06-10T07:12:55;5.60;;;3.50;;
72728;SDS011;60843;52.062;4.508;2023-06-10T07:15:21;7.20;;;3.80;;
72728;SDS011;60843;52.062;4.508;2023-06-10T07:17:46;6.82;;;3.33;;
72728;SDS011;60843;52.062;4.508;2023-06-10T07:20:12;9.27;;;4.28;;
72728;SDS011;60843;52.062;4.508;2023-06-10T07:22:38;6.93;;;3.92;;
72728;SDS011;60843;52.062;4.508;2023-06-10T07:25:04;9.77;;;4.10;;
72728;SDS011;60843;52.062;4.508;2023-06-10T07:27:30;9.52;;;4.22;;
72728;SDS011;60843;52.062;4.508;2023-06-10T07:29:56;6.82;;;3.72;;
72728;SDS011;60843;52.062;4.508;2023-06-10T07:32:22;7.18;;;4.15;;
72728;SDS011;60843;52.062;4.508;2023-06-10T07:34:49;9.43;;;4.05;;
72728;SDS011;60843;52.062;4.508;2023-06-10T07:37:15;11.25;;;3.60;;
72728;SDS011;60843;52.062;4.508;2023-06-10T07:39:40;5.60;;;3.65;;
72728;SDS011;60843;52.062;4.508;2023-06-10T07:42:11;6.80;;;3.80;;
72728;SDS011;60843;52.062;4.508;2023-06-10T07:44:36;6.27;;;3.80;;
72728;SDS011;60843;52.062;4.508;2023-06-10T07:47:02;7.88;;;3.88;;
72728;SDS011;60843;52.062;4.508;2023-06-10T07:49:30;9.65;;;3.88;;
72728;SDS011;60843;52.062;4.508;2023-06-10T07:51:56;6.00;;;3.38;;
72728;SDS011;60843;52.062;4.508;2023-06-10T07:54:22;6.70;;;3.45;;
72728;SDS011;60843;52.062;4.508;2023-06-10T07:56:47;8.23;;;4.10;;
72728;SDS011;60843;52.062;4.508;2023-06-10T07:59:15;7.15;;;3.90;;
72728;SDS011;60843;52.062;4.508;2023-06-10T08:01:41;6.97;;;3.80;;
72728;SDS011;60843;52.062;4.508;2023-06-10T08:04:07;9.20;;;4.30;;
72728;SDS011;60843;52.062;4.508;2023-06-10T08:06:33;5.55;;;3.85;;
72728;SDS011;60843;52.062;4.508;2023-06-10T08:08:59;10.13;;;3.85;;
72728;SDS011;60843;52.062;4.508;2023-06-10T08:11:25;6.82;;;4.22;;
72728;SDS011;60843;52.062;4.508;2023-06-10T08:13:53;8.85;;;4.28;;
72728;SDS011;60843;52.062;4.508;2023-06-10T08:16:19;8.13;;;3.70;;
72728;SDS011;60843;52.062;4.508;2023-06-10T08:18:44;7.43;;;4.13;;
72728;SDS011;60843;52.062;4.508;2023-06-10T08:21:10;6.45;;;3.85;;
72728;SDS011;60843;52.062;4.508;2023-06-10T08:23:35;7.38;;;3.90;;
72728;SDS011;60843;52.062;4.508;2023-06-10T08:26:00;8.13;;;4.00;;
72728;SDS011;60843;52.062;4.508;2023-06-10T08:28:26;7.47;;;3.87;;
72728;SDS011;60843;52.062;4.508;2023-06-10T08:30:51;8.83;;;4.57;;
72728;SDS011;60843;52.062;4.508;2023-06-10T08:33:16;7.38;;;3.97;;
72728;SDS011;60843;52.062;4.508;2023-06-10T08:35:43;8.82;;;4.32;;
72728;SDS011;60843;52.062;4.508;2023-06-10T08:38:08;7.10;;;4.07;;
72728;SDS011;60843;52.062;4.508;2023-06-10T08:40:34;10.03;;;3.87;;
72728;SDS011;60843;52.062;4.508;2023-06-10T08:43:06;6.95;;;3.90;;
72728;SDS011;60843;52.062;4.508;2023-06-10T08:45:34;8.02;;;4.07;;
72728;SDS011;60843;52.062;4.508;2023-06-10T08:48:00;7.63;;;4.50;;
72728;SDS011;60843;52.062;4.508;2023-06-10T08:50:31;6.00;;;3.78;;
72728;SDS011;60843;52.062;4.508;2023-06-10T08:53:05;7.22;;;3.60;;
72728;SDS011;60843;52.062;4.508;2023-06-10T08:57:58;8.80;;;3.97;;
72728;SDS011;60843;52.062;4.508;2023-06-10T09:02:50;6.97;;;3.67;;
72728;SDS011;60843;52.062;4.508;2023-06-10T09:05:15;8.50;;;4.47;;
72728;SDS011;60843;52.062;4.508;2023-06-10T09:07:41;8.40;;;3.80;;
72728;SDS011;60843;52.062;4.508;2023-06-10T09:10:07;7.78;;;3.63;;
72728;SDS011;60843;52.062;4.508;2023-06-10T09:12:33;5.97;;;4.00;;
72728;SDS011;60843;52.062;4.508;2023-06-10T09:14:59;7.13;;;3.88;;
72728;SDS011;60843;52.062;4.508;2023-06-10T09:17:25;7.05;;;4.00;;
72728;SDS011;60843;52.062;4.508;2023-06-10T09:19:52;8.18;;;4.40;;
72728;SDS011;60843;52.062;4.508;2023-06-10T09:22:18;7.20;;;3.78;;
72728;SDS011;60843;52.062;4.508;2023-06-10T09:24:44;7.10;;;4.00;;
72728;SDS011;60843;52.062;4.508;2023-06-10T09:27:11;8.07;;;3.80;;
72728;SDS011;60843;52.062;4.508;2023-06-10T09:32:18;6.63;;;3.90;;
72728;SDS011;60843;52.062;4.508;2023-06-10T09:34:44;10.57;;;4.35;;
72728;SDS011;60843;52.062;4.508;2023-06-10T09:37:10;8.77;;;3.90;;
72728;SDS011;60843;52.062;4.508;2023-06-10T09:39:38;7.80;;;4.30;;
72728;SDS011;60843;52.062;4.508;2023-06-10T09:42:16;7.93;;;4.10;;
72728;SDS011;60843;52.062;4.508;2023-06-10T09:44:49;7.78;;;4.18;;
72728;SDS011;60843;52.062;4.508;2023-06-10T09:47:19;5.93;;;3.78;;
72728;SDS011;60843;52.062;4.508;2023-06-10T09:49:45;8.50;;;3.63;;
72728;SDS011;60843;52.062;4.508;2023-06-10T09:52:11;7.93;;;4.10;;
72728;SDS011;60843;52.062;4.508;2023-06-10T09:54:36;8.90;;;4.15;;
72728;SDS011;60843;52.062;4.508;2023-06-10T09:57:06;9.63;;;4.20;;
72728;SDS011;60843;52.062;4.508;2023-06-10T09:59:32;11.32;;;4.07;;
72728;SDS011;60843;52.062;4.508;2023-06-10T10:01:59;6.00;;;4.10;;
72728;SDS011;60843;52.062;4.508;2023-06-10T10:04:25;6.55;;;3.92;;
72728;SDS011;60843;52.062;4.508;2023-06-10T10:06:51;6.72;;;3.90;;
72728;SDS011;60843;52.062;4.508;2023-06-10T10:09:17;6.85;;;3.92;;
72728;SDS011;60843;52.062;4.508;2023-06-10T10:11:43;8.50;;;4.10;;
72728;SDS011;60843;52.062;4.508;2023-06-10T10:14:09;7.57;;;3.90;;
72728;SDS011;60843;52.062;4.508;2023-06-10T10:16:40;5.63;;;3.83;;
72728;SDS011;60843;52.062;4.508;2023-06-10T10:19:15;7.30;;;4.45;;
72728;SDS011;60843;52.062;4.508;2023-06-10T10:21:46;10.43;;;4.40;;
72728;SDS011;60843;52.062;4.508;2023-06-10T10:24:19;6.45;;;3.85;;
72728;SDS011;60843;52.062;4.508;2023-06-10T10:26:46;6.40;;;3.92;;
72728;SDS011;60843;52.062;4.508;2023-06-10T10:29:18;8.10;;;4.20;;
72728;SDS011;60843;52.062;4.508;2023-06-10T10:31:46;6.35;;;3.88;;
72728;SDS011;60843;52.062;4.508;2023-06-10T10:34:19;6.82;;;3.58;;
72728;SDS011;60843;52.062;4.508;2023-06-10T10:36:46;7.93;;;4.18;;
72728;SDS011;60843;52.062;4.508;2023-06-10T10:39:13;5.53;;;3.50;;
72728;SDS011;60843;52.062;4.508;2023-06-10T10:41:38;9.40;;;4.03;;
72728;SDS011;60843;52.062;4.508;2023-06-10T10:44:05;9.27;;;3.85;;
72728;SDS011;60843;52.062;4.508;2023-06-10T10:46:41;7.40;;;4.45;;
72728;SDS011;60843;52.062;4.508;2023-06-10T10:49:07;8.98;;;4.18;;
72728;SDS011;60843;52.062;4.508;2023-06-10T10:51:36;8.35;;;4.05;;
72728;SDS011;60843;52.062;4.508;2023-06-10T10:54:14;8.45;;;3.70;;
72728;SDS011;60843;52.062;4.508;2023-06-10T10:56:40;7.65;;;4.10;;
72728;SDS011;60843;52.062;4.508;2023-06-10T11:02:34;7.00;;;4.15;;
72728;SDS011;60843;52.062;4.508;2023-06-10T11:05:14;10.75;;;4.13;;
72728;SDS011;60843;52.062;4.508;2023-06-10T11:07:40;6.35;;;3.85;;
72728;SDS011;60843;52.062;4.508;2023-06-10T11:10:07;8.40;;;4.07;;
72728;SDS011;60843;52.062;4.508;2023-06-10T11:15:18;8.20;;;3.92;;
72728;SDS011;60843;52.062;4.508;2023-06-10T11:20:45;8.95;;;4.25;;
72728;SDS011;60843;52.062;4.508;2023-06-10T11:28:41;11.27;;;4.00;;
72728;SDS011;60843;52.062;4.508;2023-06-10T11:31:19;8.48;;;3.97;;
72728;SDS011;60843;52.062;4.508;2023-06-10T11:33:46;6.78;;;3.67;;
72728;SDS011;60843;52.062;4.508;2023-06-10T11:36:12;4.72;;;3.70;;
72728;SDS011;60843;52.062;4.508;2023-06-10T11:38:38;13.10;;;3.80;;
72728;SDS011;60843;52.062;4.508;2023-06-10T11:41:03;8.48;;;3.78;;
72728;SDS011;60843;52.062;4.508;2023-06-10T11:43:29;6.13;;;3.47;;
72728;SDS011;60843;52.062;4.508;2023-06-10T11:45:55;5.65;;;3.72;;
72728;SDS011;60843;52.062;4.508;2023-06-10T11:48:21;6.20;;;3.78;;
72728;SDS011;60843;52.062;4.508;2023-06-10T11:50:47;6.05;;;3.53;;
72728;SDS011;60843;52.062;4.508;2023-06-10T11:53:12;8.02;;;3.75;;
72728;SDS011;60843;52.062;4.508;2023-06-10T12:00:47;4.05;;;3.30;;
72728;SDS011;60843;52.062;4.508;2023-06-10T12:03:13;6.80;;;3.50;;
72728;SDS011;60843;52.062;4.508;2023-06-10T12:05:39;10.50;;;3.88;;
72728;SDS011;60843;52.062;4.508;2023-06-10T12:08:08;8.85;;;3.95;;
72728;SDS011;60843;52.062;4.508;2023-06-10T12:10:41;4.63;;;3.35;;
72728;SDS011;60843;52.062;4.508;2023-06-10T12:13:08;6.43;;;3.30;;
72728;SDS011;60843;52.062;4.508;2023-06-10T12:15:34;5.72;;;3.60;;
72728;SDS011;60843;52.062;4.508;2023-06-10T12:17:59;6.07;;;3.90;;
72728;SDS011;60843;52.062;4.508;2023-06-10T12:20:28;6.05;;;3.72;;
72728;SDS011;60843;52.062;4.508;2023-06-10T12:22:54;6.65;;;3.38;;
72728;SDS011;60843;52.062;4.508;2023-06-10T12:25:27;5.38;;;3.35;;
72728;SDS011;60843;52.062;4.508;2023-06-10T12:27:54;4.70;;;3.25;;
72728;SDS011;60843;52.062;4.508;2023-06-10T12:30:20;7.57;;;3.60;;
72728;SDS011;60843;52.062;4.508;2023-06-10T12:32:47;8.07;;;3.85;;
72728;SDS011;60843;52.062;4.508;2023-06-10T12:35:17;5.85;;;3.40;;
72728;SDS011;60843;52.062;4.508;2023-06-10T12:37:54;9.52;;;3.75;;
72728;SDS011;60843;52.062;4.508;2023-06-10T12:40:30;7.43;;;3.53;;
72728;SDS011;60843;52.062;4.508;2023-06-10T12:42:57;5.22;;;3.30;;
72728;SDS011;60843;52.062;4.508;2023-06-10T12:45:30;6.63;;;3.78;;
72728;SDS011;60843;52.062;4.508;2023-06-10T12:48:25;7.28;;;3.60;;
72728;SDS011;60843;52.062;4.508;2023-06-10T12:50:53;5.85;;;3.47;;
72728;SDS011;60843;52.062;4.508;2023-06-10T12:53:19;6.30;;;3.53;;
72728;SDS011;60843;52.062;4.508;2023-06-10T12:55:46;6.18;;;3.50;;
72728;SDS011;60843;52.062;4.508;2023-06-10T12:58:12;6.28;;;3.60;;
72728;SDS011;60843;52.062;4.508;2023-06-10T13:00:38;4.07;;;3.08;;
72728;SDS011;60843;52.062;4.508;2023-06-10T13:03:04;6.50;;;3.55;;
72728;SDS011;60843;52.062;4.508;2023-06-10T13:05:30;4.43;;;3.22;;
72728;SDS011;60843;52.062;4.508;2023-06-10T13:07:56;7.35;;;3.33;;
72728;SDS011;60843;52.062;4.508;2023-06-10T13:10:23;8.52;;;3.78;;
72728;SDS011;60843;52.062;4.508;2023-06-10T13:12:49;5.47;;;3.30;;
72728;SDS011;60843;52.062;4.508;2023-06-10T13:15:15;6.75;;;3.38;;
72728;SDS011;60843;52.062;4.508;2023-06-10T13:17:42;6.60;;;3.35;;
72728;SDS011;60843;52.062;4.508;2023-06-10T13:20:19;5.82;;;3.65;;
72728;SDS011;60843;52.062;4.508;2023-06-10T13:22:45;8.13;;;3.33;;
72728;SDS011;60843;52.062;4.508;2023-06-10T13:25:11;4.22;;;3.03;;
72728;SDS011;60843;52.062;4.508;2023-06-10T13:27:36;6.53;;;3.25;;
72728;SDS011;60843;52.062;4.508;2023-06-10T13:30:07;5.65;;;3.40;;
72728;SDS011;60843;52.062;4.508;2023-06-10T13:32:33;5.82;;;3.15;;
72728;SDS011;60843;52.062;4.508;2023-06-10T13:34:59;5.43;;;3.45;;
72728;SDS011;60843;52.062;4.508;2023-06-10T13:37:25;4.80;;;3.10;;
72728;SDS011;60843;52.062;4.508;2023-06-10T13:39:50;6.85;;;3.40;;
72728;SDS011;60843;52.062;4.508;2023-06-10T13:42:16;4.88;;;3.42;;
72728;SDS011;60843;52.062;4.508;2023-06-10T13:44:44;5.35;;;3.47;;
72728;SDS011;60843;52.062;4.508;2023-06-10T13:47:10;5.47;;;3.47;;
72728;SDS011;60843;52.062;4.508;2023-06-10T13:49:36;5.95;;;3.53;;
72728;SDS011;60843;52.062;4.508;2023-06-10T13:52:02;5.65;;;3.53;;
72728;SDS011;60843;52.062;4.508;2023-06-10T13:54:28;6.85;;;3.95;;
72728;SDS011;60843;52.062;4.508;2023-06-10T13:56:53;6.18;;;3.65;;
72728;SDS011;60843;52.062;4.508;2023-06-10T13:59:19;7.30;;;3.67;;
72728;SDS011;60843;52.062;4.508;2023-06-10T14:01:45;7.18;;;3.55;;
72728;SDS011;60843;52.062;4.508;2023-06-10T14:04:11;6.15;;;3.50;;
72728;SDS011;60843;52.062;4.508;2023-06-10T14:06:37;7.05;;;3.40;;
72728;SDS011;60843;52.062;4.508;2023-06-10T14:09:02;4.95;;;3.80;;
72728;SDS011;60843;52.062;4.508;2023-06-10T14:11:28;6.30;;;5.10;;
72728;SDS011;60843;52.062;4.508;2023-06-10T14:13:54;6.13;;;3.58;;
72728;SDS011;60843;52.062;4.508;2023-06-10T14:16:23;5.15;;;3.28;;
72728;SDS011;60843;52.062;4.508;2023-06-10T14:18:48;5.03;;;3.40;;
72728;SDS011;60843;52.062;4.508;2023-06-10T14:21:15;6.40;;;3.22;;
72728;SDS011;60843;52.062;4.508;2023-06-10T14:23:41;5.82;;;3.10;;
72728;SDS011;60843;52.062;4.508;2023-06-10T14:26:08;5.97;;;3.08;;
72728;SDS011;60843;52.062;4.508;2023-06-10T14:28:33;7.28;;;3.55;;
72728;SDS011;60843;52.062;4.508;2023-06-10T14:30:59;6.15;;;3.20;;
72728;SDS011;60843;52.062;4.508;2023-06-10T14:33:24;5.63;;;2.78;;
72728;SDS011;60843;52.062;4.508;2023-06-10T14:35:50;4.50;;;3.22;;
72728;SDS011;60843;52.062;4.508;2023-06-10T14:38:15;4.90;;;3.00;;
72728;SDS011;60843;52.062;4.508;2023-06-10T14:40:41;7.13;;;3.13;;
72728;SDS011;60843;52.062;4.508;2023-06-10T14:43:06;6.50;;;3.25;;
72728;SDS011;60843;52.062;4.508;2023-06-10T14:45:35;11.85;;;3.63;;
72728;SDS011;60843;52.062;4.508;2023-06-10T14:48:02;7.30;;;3.33;;
72728;SDS011;60843;52.062;4.508;2023-06-10T14:50:28;6.03;;;3.55;;
72728;SDS011;60843;52.062;4.508;2023-06-10T14:52:53;3.78;;;2.70;;
72728;SDS011;60843;52.062;4.508;2023-06-10T14:55:19;6.28;;;3.70;;
72728;SDS011;60843;52.062;4.508;2023-06-10T14:57:45;8.65;;;3.30;;
72728;SDS011;60843;52.062;4.508;2023-06-10T15:00:10;6.57;;;3.33;;
72728;SDS011;60843;52.062;4.508;2023-06-10T15:02:36;6.75;;;3.30;;
72728;SDS011;60843;52.062;4.508;2023-06-10T15:05:02;5.57;;;3.15;;
72728;SDS011;60843;52.062;4.508;2023-06-10T15:07:28;4.80;;;3.22;;
72728;SDS011;60843;52.062;4.508;2023-06-10T15:09:56;7.30;;;3.00;;
72728;SDS011;60843;52.062;4.508;2023-06-10T15:12:22;6.35;;;3.25;;
72728;SDS011;60843;52.062;4.508;2023-06-10T15:14:48;8.88;;;2.78;;
72728;SDS011;60843;52.062;4.508;2023-06-10T15:17:13;7.33;;;3.53;;